sensor_id;sensor_type;location;lat;lon;timestamp;temperature;humidity
40702;DHT22;26387;50.114;8.662;2023-02-01T02:56:16;9.30;98.60
40702;DHT22;26387;50.114;8.662;2023-02-01T02:59:03;9.30;99.00
40702;DHT22;26387;50.114;8.662;2023-02-01T03:01:48;9.20;99.00
40702;DHT22;26387;50.114;8.662;2023-02-01T03:04:32;9.30;98.90
40702;DHT22;26387;50.114;8.662;2023-02-01T03:07:09;9.30;98.90
40702;DHT22;26387;50.114;8.662;2023-02-01T03:09:37;9.30;99.00
40702;DHT22;26387;50.114;8.662;2023-02-01T03:12:07;9.30;99.00
40702;DHT22;26387;50.114;8.662;2023-02-01T03:14:57;9.20;99.00
40702;DHT22;26387;50.114;8.662;2023-02-01T03:17:26;9.20;99.10
40702;DHT22;26387;50.114;8.662;2023-02-01T03:19:52;9.00;99.40
40702;DHT22;26387;50.114;8.662;2023-02-01T03:22:22;9.00;99.50
40702;DHT22;26387;50.114;8.662;2023-02-01T03:24:50;9.00;99.50
40702;DHT22;26387;50.114;8.662;2023-02-01T03:30:08;9.00;99.40
40702;DHT22;26387;50.114;8.662;2023-02-01T03:32:35;8.90;99.50
40702;DHT22;26387;50.114;8.662;2023-02-01T03:35:23;8.90;99.50
40702;DHT22;26387;50.114;8.662;2023-02-01T03:37:50;8.80;99.50
40702;DHT22;26387;50.114;8.662;2023-02-01T03:40:15;8.70;99.70
40702;DHT22;26387;50.114;8.662;2023-02-01T03:42:45;8.70;99.90
40702;DHT22;26387;50.114;8.662;2023-02-01T03:45:13;8.70;99.90
40702;DHT22;26387;50.114;8.662;2023-02-01T03:47:44;8.70;99.80
40702;DHT22;26387;50.114;8.662;2023-02-01T03:50:18;8.70;99.90
40702;DHT22;26387;50.114;8.662;2023-02-01T03:52:45;8.80;99.80
40702;DHT22;26387;50.114;8.662;2023-02-01T03:55:13;8.70;99.80
40702;DHT22;26387;50.114;8.662;2023-02-01T03:57:41;8.80;99.80
40702;DHT22;26387;50.114;8.662;2023-02-01T04:00:14;8.70;99.80
40702;DHT22;26387;50.114;8.662;2023-02-01T04:02:40;8.80;99.90
40702;DHT22;26387;50.114;8.662;2023-02-01T04:05:06;8.70;99.90
40702;DHT22;26387;50.114;8.662;2023-02-01T04:07:31;8.60;99.90
40702;DHT22;26387;50.114;8.662;2023-02-01T04:09:57;8.50;99.90
40702;DHT22;26387;50.114;8.662;2023-02-01T04:12:22;8.50;99.90
40702;DHT22;26387;50.114;8.662;2023-02-01T04:14:48;8.50;99.90
40702;DHT22;26387;50.114;8.662;2023-02-01T04:17:13;8.50;99.90
40702;DHT22;26387;50.114;8.662;2023-02-01T04:19:39;8.50;99.90
40702;DHT22;26387;50.114;8.662;2023-02-01T04:22:04;8.50;99.90
40702;DHT22;26387;50.114;8.662;2023-02-01T04:24:30;8.50;99.90
40702;DHT22;26387;50.114;8.662;2023-02-01T04:26:55;8.50;99.90
40702;DHT22;26387;50.114;8.662;2023-02-01T04:29:20;8.50;99.90
40702;DHT22;26387;50.114;8.662;2023-02-01T04:31:46;8.50;99.90
40702;DHT22;26387;50.114;8.662;2023-02-01T04:34:11;8.60;99.90
40702;DHT22;26387;50.114;8.662;2023-02-01T04:36:37;8.60;99.90
40702;DHT22;26387;50.114;8.662;2023-02-01T04:39:02;8.70;99.90
40702;DHT22;26387;50.114;8.662;2023-02-01T04:41:28;8.80;99.80
40702;DHT22;26387;50.114;8.662;2023-02-01T04:43:54;8.90;99.60
40702;DHT22;26387;50.114;8.662;2023-02-01T04:46:19;9.10;99.50
40702;DHT22;26387;50.114;8.662;2023-02-01T04:48:45;9.20;99.20
40702;DHT22;26387;50.114;8.662;2023-02-01T04:51:10;9.20;99.20
40702;DHT22;26387;50.114;8.662;2023-02-01T04:53:36;9.20;99.10
40702;DHT22;26387;50.114;8.662;2023-02-01T04:56:01;9.20;99.30
40702;DHT22;26387;50.114;8.662;2023-02-01T04:58:27;9.10;99.20
40702;DHT22;26387;50.114;8.662;2023-02-01T05:00:52;9.20;99.10
40702;DHT22;26387;50.114;8.662;2023-02-01T05:03:18;9.20;99.10
40702;DHT22;26387;50.114;8.662;2023-02-01T05:05:44;9.10;99.20
40702;DHT22;26387;50.114;8.662;2023-02-01T05:08:09;9.00;99.30
40702;DHT22;26387;50.114;8.662;2023-02-01T05:10:35;9.00;99.50
40702;DHT22;26387;50.114;8.662;2023-02-01T05:13:00;9.00;99.40
40702;DHT22;26387;50.114;8.662;2023-02-01T05:15:44;8.90;99.50
40702;DHT22;26387;50.114;8.662;2023-02-01T05:18:11;8.80;99.80
40702;DHT22;26387;50.114;8.662;2023-02-01T05:20:37;8.80;99.70
40702;DHT22;26387;50.114;8.662;2023-02-01T05:23:02;8.80;99.80
40702;DHT22;26387;50.114;8.662;2023-02-01T05:25:28;8.90;99.80
40702;DHT22;26387;50.114;8.662;2023-02-01T05:27:53;9.10;99.50
40702;DHT22;26387;50.114;8.662;2023-02-01T05:30:19;9.20;99.10
40702;DHT22;26387;50.114;8.662;2023-02-01T05:32:44;9.20;98.90
40702;DHT22;26387;50.114;8.662;2023-02-01T05:35:10;9.20;98.80
40702;DHT22;26387;50.114;8.662;2023-02-01T05:37:35;9.20;98.80
40702;DHT22;26387;50.114;8.662;2023-02-01T05:40:01;9.30;98.70
40702;DHT22;26387;50.114;8.662;2023-02-01T05:42:26;9.30;98.50
40702;DHT22;26387;50.114;8.662;2023-02-01T05:44:52;9.40;98.70
40702;DHT22;26387;50.114;8.662;2023-02-01T05:47:17;9.50;98.30
40702;DHT22;26387;50.114;8.662;2023-02-01T06:09:10;9.50;98.00
40702;DHT22;26387;50.114;8.662;2023-02-01T06:11:35;9.20;97.10
40702;DHT22;26387;50.114;8.662;2023-02-01T06:16:27;9.10;97.20
40702;DHT22;26387;50.114;8.662;2023-02-01T06:18:52;9.20;97.30
40702;DHT22;26387;50.114;8.662;2023-02-01T06:21:18;9.20;97.30
40702;DHT22;26387;50.114;8.662;2023-02-01T06:23:52;9.10;97.10
40702;DHT22;26387;50.114;8.662;2023-02-01T06:26:18;9.00;97.10
40702;DHT22;26387;50.114;8.662;2023-02-01T06:28:43;9.10;97.20
40702;DHT22;26387;50.114;8.662;2023-02-01T06:31:09;9.10;97.30
40702;DHT22;26387;50.114;8.662;2023-02-01T06:33:34;9.10;97.00
40702;DHT22;26387;50.114;8.662;2023-02-01T06:36:00;9.10;97.10
40702;DHT22;26387;50.114;8.662;2023-02-01T06:38:27;9.00;97.30
40702;DHT22;26387;50.114;8.662;2023-02-01T06:40:53;9.00;97.10
40702;DHT22;26387;50.114;8.662;2023-02-01T06:43:19;8.90;97.30
40702;DHT22;26387;50.114;8.662;2023-02-01T06:45:44;8.90;97.30
40702;DHT22;26387;50.114;8.662;2023-02-01T06:48:10;8.90;97.60
40702;DHT22;26387;50.114;8.662;2023-02-01T06:50:35;8.90;97.40
40702;DHT22;26387;50.114;8.662;2023-02-01T06:53:01;8.80;97.20
40702;DHT22;26387;50.114;8.662;2023-02-01T06:55:26;8.80;97.30
40702;DHT22;26387;50.114;8.662;2023-02-01T06:57:55;8.70;97.10
40702;DHT22;26387;50.114;8.662;2023-02-01T07:00:21;8.70;97.00
40702;DHT22;26387;50.114;8.662;2023-02-01T07:02:47;8.70;97.00
40702;DHT22;26387;50.114;8.662;2023-02-01T07:05:12;8.70;97.00
40702;DHT22;26387;50.114;8.662;2023-02-01T07:07:37;8.70;96.90
40702;DHT22;26387;50.114;8.662;2023-02-01T07:10:03;8.70;96.50
40702;DHT22;26387;50.114;8.662;2023-02-01T07:12:29;8.60;96.50
40702;DHT22;26387;50.114;8.662;2023-02-01T07:14:54;8.60;96.60
40702;DHT22;26387;50.114;8.662;2023-02-01T07:17:19;8.60;96.40
40702;DHT22;26387;50.114;8.662;2023-02-01T07:19:45;8.60;96.10
40702;DHT22;26387;50.114;8.662;2023-02-01T07:22:12;8.60;96.00
40702;DHT22;26387;50.114;8.662;2023-02-01T07:24:38;8.70;95.80
40702;DHT22;26387;50.114;8.662;2023-02-01T07:27:03;8.60;95.60
40702;DHT22;26387;50.114;8.662;2023-02-01T07:29:29;8.60;95.50
40702;DHT22;26387;50.114;8.662;2023-02-01T07:31:54;8.70;95.30
40702;DHT22;26387;50.114;8.662;2023-02-01T07:34:20;8.70;95.30
40702;DHT22;26387;50.114;8.662;2023-02-01T07:36:45;8.70;95.00
40702;DHT22;26387;50.114;8.662;2023-02-01T07:39:10;8.80;94.60
40702;DHT22;26387;50.114;8.662;2023-02-01T07:41:36;8.80;94.90
40702;DHT22;26387;50.114;8.662;2023-02-01T07:44:01;8.90;94.60
40702;DHT22;26387;50.114;8.662;2023-02-01T07:46:27;8.80;94.30
40702;DHT22;26387;50.114;8.662;2023-02-01T07:48:52;8.70;94.10
40702;DHT22;26387;50.114;8.662;2023-02-01T08:20:47;8.80;94.20
40702;DHT22;26387;50.114;8.662;2023-02-01T08:23:12;9.50;93.00
40702;DHT22;26387;50.114;8.662;2023-02-01T08:25:38;9.50;92.90
40702;DHT22;26387;50.114;8.662;2023-02-01T08:28:04;9.50;92.80
40702;DHT22;26387;50.114;8.662;2023-02-01T08:30:30;9.50;92.70
40702;DHT22;26387;50.114;8.662;2023-02-01T08:32:55;9.50;92.80
40702;DHT22;26387;50.114;8.662;2023-02-01T08:35:21;9.60;92.70
40702;DHT22;26387;50.114;8.662;2023-02-01T08:37:46;9.60;92.60
40702;DHT22;26387;50.114;8.662;2023-02-01T08:40:12;9.70;92.60
40702;DHT22;26387;50.114;8.662;2023-02-01T08:42:38;9.80;92.70
40702;DHT22;26387;50.114;8.662;2023-02-01T08:45:16;9.70;92.10
40702;DHT22;26387;50.114;8.662;2023-02-01T08:47:42;9.70;92.30
40702;DHT22;26387;50.114;8.662;2023-02-01T08:50:08;9.70;92.20
40702;DHT22;26387;50.114;8.662;2023-02-01T08:52:33;9.70;92.10
40702;DHT22;26387;50.114;8.662;2023-02-01T08:54:59;9.70;92.30
40702;DHT22;26387;50.114;8.662;2023-02-01T08:57:24;9.80;92.00
40702;DHT22;26387;50.114;8.662;2023-02-01T08:59:50;9.70;92.10
40702;DHT22;26387;50.114;8.662;2023-02-01T09:02:16;9.70;91.90
40702;DHT22;26387;50.114;8.662;2023-02-01T09:04:42;9.80;91.80
40702;DHT22;26387;50.114;8.662;2023-02-01T09:07:08;9.90;91.80
40702;DHT22;26387;50.114;8.662;2023-02-01T09:09:34;9.90;91.40
40702;DHT22;26387;50.114;8.662;2023-02-01T09:11:59;9.80;91.50
40702;DHT22;26387;50.114;8.662;2023-02-01T09:14:25;9.80;91.60
40702;DHT22;26387;50.114;8.662;2023-02-01T09:16:50;9.80;91.50
40702;DHT22;26387;50.114;8.662;2023-02-01T09:19:16;9.90;91.20
40702;DHT22;26387;50.114;8.662;2023-02-01T09:21:41;9.90;91.10
40702;DHT22;26387;50.114;8.662;2023-02-01T09:24:08;9.80;91.00
40702;DHT22;26387;50.114;8.662;2023-02-01T09:26:35;9.80;91.00
40702;DHT22;26387;50.114;8.662;2023-02-01T09:29:00;9.80;90.90
40702;DHT22;26387;50.114;8.662;2023-02-01T09:31:26;9.80;91.00
40702;DHT22;26387;50.114;8.662;2023-02-01T09:33:52;9.70;90.50
40702;DHT22;26387;50.114;8.662;2023-02-01T09:36:17;9.70;90.80
40702;DHT22;26387;50.114;8.662;2023-02-01T09:38:45;9.80;90.60
40702;DHT22;26387;50.114;8.662;2023-02-01T09:43:57;9.90;90.50
40702;DHT22;26387;50.114;8.662;2023-02-01T09:46:28;10.00;90.60
40702;DHT22;26387;50.114;8.662;2023-02-01T09:48:55;10.00;90.30
40702;DHT22;26387;50.114;8.662;2023-02-01T09:51:33;10.00;90.20
40702;DHT22;26387;50.114;8.662;2023-02-01T09:54:04;10.10;90.10
40702;DHT22;26387;50.114;8.662;2023-02-01T09:56:35;10.00;90.00
40702;DHT22;26387;50.114;8.662;2023-02-01T09:59:04;9.90;89.80
40702;DHT22;26387;50.114;8.662;2023-02-01T10:01:33;9.90;90.10
40702;DHT22;26387;50.114;8.662;2023-02-01T10:04:04;10.00;90.20
40702;DHT22;26387;50.114;8.662;2023-02-01T10:11:31;10.10;89.10
40702;DHT22;26387;50.114;8.662;2023-02-01T10:14:47;10.10;88.40
40702;DHT22;26387;50.114;8.662;2023-02-01T10:24:53;10.20;88.60
40702;DHT22;26387;50.114;8.662;2023-02-01T10:27:25;10.40;88.40
40702;DHT22;26387;50.114;8.662;2023-02-01T10:29:55;10.50;87.70
40702;DHT22;26387;50.114;8.662;2023-02-01T10:32:24;10.50;86.90
40702;DHT22;26387;50.114;8.662;2023-02-01T10:34:57;10.50;87.50
40702;DHT22;26387;50.114;8.662;2023-02-01T10:37:24;10.40;86.70
40702;DHT22;26387;50.114;8.662;2023-02-01T10:39:52;10.40;87.30
40702;DHT22;26387;50.114;8.662;2023-02-01T10:42:19;10.40;87.00
40702;DHT22;26387;50.114;8.662;2023-02-01T10:44:45;10.40;86.90
40702;DHT22;26387;50.114;8.662;2023-02-01T10:47:13;10.40;87.60
40702;DHT22;26387;50.114;8.662;2023-02-01T10:52:18;10.40;87.50
40702;DHT22;26387;50.114;8.662;2023-02-01T10:54:45;10.40;87.10
40702;DHT22;26387;50.114;8.662;2023-02-01T10:57:19;10.40;86.90
40702;DHT22;26387;50.114;8.662;2023-02-01T10:59:45;10.40;87.60
40702;DHT22;26387;50.114;8.662;2023-02-01T11:02:31;10.30;87.20
40702;DHT22;26387;50.114;8.662;2023-02-01T11:04:58;10.30;87.40
40702;DHT22;26387;50.114;8.662;2023-02-01T11:07:24;10.30;87.50
40702;DHT22;26387;50.114;8.662;2023-02-01T11:09:51;10.40;88.50
40702;DHT22;26387;50.114;8.662;2023-02-01T11:12:22;10.40;87.60
40702;DHT22;26387;50.114;8.662;2023-02-01T11:14:48;10.40;87.80
40702;DHT22;26387;50.114;8.662;2023-02-01T11:19:46;10.40;87.20
40702;DHT22;26387;50.114;8.662;2023-02-01T11:22:12;10.40;87.10
40702;DHT22;26387;50.114;8.662;2023-02-01T11:24:38;10.40;87.70
40702;DHT22;26387;50.114;8.662;2023-02-01T11:27:06;10.30;87.50
40702;DHT22;26387;50.114;8.662;2023-02-01T11:29:41;10.30;87.40
40702;DHT22;26387;50.114;8.662;2023-02-01T11:32:08;10.20;87.90
40702;DHT22;26387;50.114;8.662;2023-02-01T11:34:38;10.10;87.60
40702;DHT22;26387;50.114;8.662;2023-02-01T11:37:05;10.10;88.60
40702;DHT22;26387;50.114;8.662;2023-02-01T11:39:38;10.10;88.10
40702;DHT22;26387;50.114;8.662;2023-02-01T11:42:05;10.10;88.50
40702;DHT22;26387;50.114;8.662;2023-02-01T11:44:38;10.20;88.50
40702;DHT22;26387;50.114;8.662;2023-02-01T11:49:42;10.40;87.70
40702;DHT22;26387;50.114;8.662;2023-02-01T11:52:36;10.40;87.90
40702;DHT22;26387;50.114;8.662;2023-02-01T11:55:01;10.40;88.10
40702;DHT22;26387;50.114;8.662;2023-02-01T11:57:47;10.40;87.70
40702;DHT22;26387;50.114;8.662;2023-02-01T12:00:24;10.50;88.20
40702;DHT22;26387;50.114;8.662;2023-02-01T12:07:52;10.50;87.50
40702;DHT22;26387;50.114;8.662;2023-02-01T12:31:24;10.60;87.00
40702;DHT22;26387;50.114;8.662;2023-02-01T12:41:52;10.70;87.90
40702;DHT22;26387;50.114;8.662;2023-02-01T12:46:52;10.70;88.10
40702;DHT22;26387;50.114;8.662;2023-02-01T12:49:22;10.80;87.70
40702;DHT22;26387;50.114;8.662;2023-02-01T12:51:52;10.70;87.40
40702;DHT22;26387;50.114;8.662;2023-02-01T12:57:05;10.70;87.40
40702;DHT22;26387;50.114;8.662;2023-02-01T12:59:38;10.70;87.40
40702;DHT22;26387;50.114;8.662;2023-02-01T13:02:08;10.80;87.30
40702;DHT22;26387;50.114;8.662;2023-02-01T13:04:40;10.80;87.20
40702;DHT22;26387;50.114;8.662;2023-02-01T13:07:09;10.70;87.50
40702;DHT22;26387;50.114;8.662;2023-02-01T13:09:39;10.70;87.70
40702;DHT22;26387;50.114;8.662;2023-02-01T13:12:49;10.80;87.50
40702;DHT22;26387;50.114;8.662;2023-02-01T13:15:03;10.90;87.50
40702;DHT22;26387;50.114;8.662;2023-02-01T13:17:31;10.90;86.60
40702;DHT22;26387;50.114;8.662;2023-02-01T13:20:05;10.80;87.10
40702;DHT22;26387;50.114;8.662;2023-02-01T13:22:33;10.80;87.10
40702;DHT22;26387;50.114;8.662;2023-02-01T13:25:00;10.90;86.80
40702;DHT22;26387;50.114;8.662;2023-02-01T13:27:27;10.90;86.70
40702;DHT22;26387;50.114;8.662;2023-02-01T13:37:59;10.60;86.80
40702;DHT22;26387;50.114;8.662;2023-02-01T13:40:39;10.70;86.50
40702;DHT22;26387;50.114;8.662;2023-02-01T13:46:04;10.90;86.60
40702;DHT22;26387;50.114;8.662;2023-02-01T13:48:41;11.00;85.60
40702;DHT22;26387;50.114;8.662;2023-02-01T13:51:11;11.00;86.10
40702;DHT22;26387;50.114;8.662;2023-02-01T13:53:37;11.00;86.10
40702;DHT22;26387;50.114;8.662;2023-02-01T13:56:16;11.00;85.80
40702;DHT22;26387;50.114;8.662;2023-02-01T13:58:43;11.00;86.00
40702;DHT22;26387;50.114;8.662;2023-02-01T14:03:48;11.00;85.90
40702;DHT22;26387;50.114;8.662;2023-02-01T14:06:15;11.00;85.60
40702;DHT22;26387;50.114;8.662;2023-02-01T14:08:41;11.00;85.50
40702;DHT22;26387;50.114;8.662;2023-02-01T14:11:30;10.90;85.70
40702;DHT22;26387;50.114;8.662;2023-02-01T14:13:53;10.90;85.70
40702;DHT22;26387;50.114;8.662;2023-02-01T14:16:18;10.90;86.00
40702;DHT22;26387;50.114;8.662;2023-02-01T14:23:40;11.00;85.40
40702;DHT22;26387;50.114;8.662;2023-02-01T14:26:07;11.10;85.60
40702;DHT22;26387;50.114;8.662;2023-02-01T14:28:35;11.30;84.40
40702;DHT22;26387;50.114;8.662;2023-02-01T14:31:03;11.50;83.80
40702;DHT22;26387;50.114;8.662;2023-02-01T15:12:35;11.80;83.00
40702;DHT22;26387;50.114;8.662;2023-02-01T15:37:04;11.80;79.90
40702;DHT22;26387;50.114;8.662;2023-02-01T15:39:29;11.50;80.80
40702;DHT22;26387;50.114;8.662;2023-02-01T15:41:56;11.30;81.00
40702;DHT22;26387;50.114;8.662;2023-02-01T15:46:57;11.10;82.30
40702;DHT22;26387;50.114;8.662;2023-02-01T15:49:25;11.10;82.60
40702;DHT22;26387;50.114;8.662;2023-02-01T15:51:51;11.10;82.40
40702;DHT22;26387;50.114;8.662;2023-02-01T15:54:18;11.10;82.10
40702;DHT22;26387;50.114;8.662;2023-02-01T15:56:49;11.20;82.50
40702;DHT22;26387;50.114;8.662;2023-02-01T15:59:19;11.20;82.60
40702;DHT22;26387;50.114;8.662;2023-02-01T16:01:45;11.20;82.30
40702;DHT22;26387;50.114;8.662;2023-02-01T16:06:37;11.00;83.10
40702;DHT22;26387;50.114;8.662;2023-02-01T16:09:13;11.00;83.70
40702;DHT22;26387;50.114;8.662;2023-02-01T16:11:57;10.90;84.00
40702;DHT22;26387;50.114;8.662;2023-02-01T16:14:24;10.90;84.30
40702;DHT22;26387;50.114;8.662;2023-02-01T16:16:51;10.80;84.90
40702;DHT22;26387;50.114;8.662;2023-02-01T16:19:17;10.90;84.80
40702;DHT22;26387;50.114;8.662;2023-02-01T16:21:42;10.90;84.70
40702;DHT22;26387;50.114;8.662;2023-02-01T16:24:08;10.90;85.00
40702;DHT22;26387;50.114;8.662;2023-02-01T16:26:33;10.90;84.90
40702;DHT22;26387;50.114;8.662;2023-02-01T16:28:59;10.90;85.20
40702;DHT22;26387;50.114;8.662;2023-02-01T16:33:52;10.70;85.20
40702;DHT22;26387;50.114;8.662;2023-02-01T16:36:18;10.60;85.90
40702;DHT22;26387;50.114;8.662;2023-02-01T16:38:44;10.50;86.30
40702;DHT22;26387;50.114;8.662;2023-02-01T16:41:12;10.40;86.70
40702;DHT22;26387;50.114;8.662;2023-02-01T16:43:37;10.50;87.00
40702;DHT22;26387;50.114;8.662;2023-02-01T16:46:03;10.50;86.70
40702;DHT22;26387;50.114;8.662;2023-02-01T16:48:30;10.50;86.60
40702;DHT22;26387;50.114;8.662;2023-02-01T16:50:57;10.40;86.80
40702;DHT22;26387;50.114;8.662;2023-02-01T16:53:24;10.40;87.00
40702;DHT22;26387;50.114;8.662;2023-02-01T16:55:50;10.40;87.00
40702;DHT22;26387;50.114;8.662;2023-02-01T16:58:17;10.40;89.10
40702;DHT22;26387;50.114;8.662;2023-02-01T17:00:43;10.50;89.30
40702;DHT22;26387;50.114;8.662;2023-02-01T17:03:10;10.50;87.10
40702;DHT22;26387;50.114;8.662;2023-02-01T17:05:45;10.40;87.10
40702;DHT22;26387;50.114;8.662;2023-02-01T17:08:13;10.40;87.50
40702;DHT22;26387;50.114;8.662;2023-02-01T17:10:40;10.30;87.50
40702;DHT22;26387;50.114;8.662;2023-02-01T17:13:08;10.20;88.70
40702;DHT22;26387;50.114;8.662;2023-02-01T17:15:34;10.20;88.20
40702;DHT22;26387;50.114;8.662;2023-02-01T17:18:00;10.20;88.70
40702;DHT22;26387;50.114;8.662;2023-02-01T17:20:28;10.10;88.50
40702;DHT22;26387;50.114;8.662;2023-02-01T17:22:54;10.10;88.80
40702;DHT22;26387;50.114;8.662;2023-02-01T17:25:20;10.10;89.20
40702;DHT22;26387;50.114;8.662;2023-02-01T17:27:46;10.10;89.30
40702;DHT22;26387;50.114;8.662;2023-02-01T17:30:12;10.10;89.20
40702;DHT22;26387;50.114;8.662;2023-02-01T17:32:38;10.10;89.30
40702;DHT22;26387;50.114;8.662;2023-02-01T17:35:04;10.10;89.70
40702;DHT22;26387;50.114;8.662;2023-02-01T17:37:31;10.00;90.10
40702;DHT22;26387;50.114;8.662;2023-02-01T17:39:57;10.10;90.40
40702;DHT22;26387;50.114;8.662;2023-02-01T20:10:49;10.00;90.50
40702;DHT22;26387;50.114;8.662;2023-02-01T20:13:15;10.10;94.20
40702;DHT22;26387;50.114;8.662;2023-02-01T20:15:40;10.10;93.80
40702;DHT22;26387;50.114;8.662;2023-02-01T20:18:09;10.20;93.90
40702;DHT22;26387;50.114;8.662;2023-02-01T20:20:35;10.20;93.70
40702;DHT22;26387;50.114;8.662;2023-02-01T20:23:01;10.10;93.50
40702;DHT22;26387;50.114;8.662;2023-02-01T20:25:31;10.20;93.70
40702;DHT22;26387;50.114;8.662;2023-02-01T20:27:56;10.30;93.70
40702;DHT22;26387;50.114;8.662;2023-02-01T20:30:22;10.30;93.50
40702;DHT22;26387;50.114;8.662;2023-02-01T20:32:48;10.30;93.90
40702;DHT22;26387;50.114;8.662;2023-02-01T20:35:13;10.30;93.40
40702;DHT22;26387;50.114;8.662;2023-02-01T20:37:39;10.30;93.20
40702;DHT22;26387;50.114;8.662;2023-02-01T20:40:07;10.30;93.50
40702;DHT22;26387;50.114;8.662;2023-02-01T20:42:33;10.30;93.40
40702;DHT22;26387;50.114;8.662;2023-02-01T20:44:58;10.30;93.00
40702;DHT22;26387;50.114;8.662;2023-02-01T20:47:24;10.40;93.30
40702;DHT22;26387;50.114;8.662;2023-02-01T20:49:50;10.40;92.90
40702;DHT22;26387;50.114;8.662;2023-02-01T20:52:15;10.40;92.90
